Time;durP1;ratioP1;P1;durP2;ratioP2;P2;SDS_P1;SDS_P2;PMS_P1;PMS_P2;Temp;Humidity;BMP_temperature;BMP_pressure;BME280_temperature;BME280_humidity;BME280_pressure;Samples;Min_cycle;Max_cycle;Signal;HPM_P1;HPM_P2
2023/12/27 00:02:57;;;;;;;89.13;44.38;;;;;;;;;;6075593;29;20060;-96
2023/12/27 00:05:59;;;;;;;60.25;30.75;;;;;;;;;;6084425;29;20154;-95
2023/12/27 00:09:02;;;;;;;42.03;22.42;;;;;;;;;;6089501;29;20048;-93
2023/12/27 00:12:06;;;;;;;36.95;20.10;;;;;;;;;;6084497;29;20044;-96
2023/12/27 00:15:08;;;;;;;30.75;17.63;;;;;;;;;;6100325;29;20116;-94
2023/12/27 00:18:10;;;;;;;26.73;16.92;;;;;;;;;;6084844;29;20340;-94
2023/12/27 00:21:12;;;;;;;25.95;16.58;;;;;;;;;;6080797;29;20053;-94
2023/12/27 00:24:14;;;;;;;27.75;15.90;;;;;;;;;;6082835;29;20065;-93
2023/12/27 00:27:18;;;;;;;24.73;15.05;;;;;;;;;;6087714;29;20075;-94
2023/12/27 00:30:20;;;;;;;28.75;15.25;;;;;;;;;;6083060;29;20119;-94
2023/12/27 00:33:22;;;;;;;22.73;14.32;;;;;;;;;;6077432;29;20067;-94
2023/12/27 00:36:29;;;;;;;22.90;14.20;;;;;;;;;;6084511;29;20049;-95
2023/12/27 00:39:31;;;;;;;22.75;14.73;;;;;;;;;;6084950;29;20056;-96
2023/12/27 00:42:34;;;;;;;28.40;15.48;;;;;;;;;;6088084;29;20104;-93
2023/12/27 00:45:36;;;;;;;23.77;13.45;;;;;;;;;;6087236;29;20089;-92
2023/12/27 00:48:38;;;;;;;22.25;13.90;;;;;;;;;;6085546;29;20044;-95
2023/12/27 00:51:40;;;;;;;23.17;14.38;;;;;;;;;;6083422;29;20041;-96
2023/12/27 00:54:43;;;;;;;27.58;15.45;;;;;;;;;;6090093;29;20060;-95
2023/12/27 00:57:46;;;;;;;22.08;14.77;;;;;;;;;;6080299;29;20040;-96
2023/12/27 01:00:48;;;;;;;23.60;15.75;;;;;;;;;;6077014;29;20324;-96
2023/12/27 01:03:49;;;;;;;22.88;15.70;;;;;;;;;;6083085;29;20041;-95
2023/12/27 01:06:51;;;;;;;24.10;15.30;;;;;;;;;;6082697;29;20056;-95
2023/12/27 01:09:53;;;;;;;21.52;14.00;;;;;;;;;;6090906;29;20060;-94
2023/12/27 01:12:56;;;;;;;23.88;14.30;;;;;;;;;;6091238;29;20072;-96
2023/12/27 01:16:00;;;;;;;22.47;13.33;;;;;;;;;;6084607;29;20121;-95
2023/12/27 01:19:02;;;;;;;21.60;14.48;;;;;;;;;;6085112;29;20839;-95
2023/12/27 01:22:04;;;;;;;21.63;14.93;;;;;;;;;;6081100;29;20047;-95
2023/12/27 01:25:06;;;;;;;25.35;15.45;;;;;;;;;;6080841;29;20045;-94
2023/12/27 01:28:09;;;;;;;23.55;14.80;;;;;;;;;;6082981;29;20059;-95
2023/12/27 01:31:11;;;;;;;23.85;14.77;;;;;;;;;;6086903;29;20059;-95
2023/12/27 01:34:13;;;;;;;22.95;14.98;;;;;;;;;;6082672;29;20053;-93
2023/12/27 01:37:15;;;;;;;23.50;14.95;;;;;;;;;;6088251;29;20127;-95
2023/12/27 01:40:17;;;;;;;23.55;15.32;;;;;;;;;;6087563;29;20048;-93
2023/12/27 01:43:23;;;;;;;26.20;15.85;;;;;;;;;;6085821;29;20045;-96
2023/12/27 01:46:24;;;;;;;25.25;15.38;;;;;;;;;;6079776;29;20044;-96
2023/12/27 01:49:27;;;;;;;25.90;15.25;;;;;;;;;;6080630;29;20041;-94
2023/12/27 01:52:29;;;;;;;21.77;15.02;;;;;;;;;;6089589;29;20117;-95
2023/12/27 01:55:31;;;;;;;28.02;16.15;;;;;;;;;;6088744;29;20058;-96
2023/12/27 01:58:34;;;;;;;22.77;14.82;;;;;;;;;;6082465;29;20041;-96
2023/12/27 02:01:37;;;;;;;24.35;16.15;;;;;;;;;;6085979;29;20063;-95
2023/12/27 02:04:38;;;;;;;25.15;16.27;;;;;;;;;;6088673;29;20067;-95
2023/12/27 02:07:42;;;;;;;25.02;17.27;;;;;;;;;;6081212;29;20052;-94
2023/12/27 02:10:44;;;;;;;28.38;16.10;;;;;;;;;;6084368;29;20100;-95
2023/12/27 02:13:47;;;;;;;26.77;17.08;;;;;;;;;;6083308;29;20357;-95
2023/12/27 02:16:51;;;;;;;25.75;17.17;;;;;;;;;;6089663;29;20061;-94
2023/12/27 02:19:54;;;;;;;28.95;18.10;;;;;;;;;;6091023;29;20053;-95
2023/12/27 02:22:57;;;;;;;26.02;17.58;;;;;;;;;;6086882;29;20052;-95
2023/12/27 02:26:01;;;;;;;27.43;16.67;;;;;;;;;;6086833;29;20045;-95
2023/12/27 02:29:03;;;;;;;29.10;17.90;;;;;;;;;;6085883;29;20045;-95
2023/12/27 02:32:08;;;;;;;28.70;18.20;;;;;;;;;;6084510;29;20044;-95
2023/12/27 02:35:11;;;;;;;29.13;19.15;;;;;;;;;;6087773;29;20052;-95
2023/12/27 02:38:12;;;;;;;23.25;15.98;;;;;;;;;;6089381;29;20057;-95
2023/12/27 02:41:16;;;;;;;27.38;16.70;;;;;;;;;;6090087;29;20049;-95
2023/12/27 02:44:18;;;;;;;25.90;16.27;;;;;;;;;;6090882;29;20053;-96
2023/12/27 02:47:20;;;;;;;24.23;15.20;;;;;;;;;;6093185;29;20060;-95
2023/12/27 02:50:23;;;;;;;24.45;15.85;;;;;;;;;;6090967;29;20048;-94
2023/12/27 02:53:24;;;;;;;22.20;14.70;;;;;;;;;;6091562;29;20411;-93
2023/12/27 02:56:28;;;;;;;22.67;13.68;;;;;;;;;;6089955;29;20048;-94
2023/12/27 02:59:30;;;;;;;22.38;14.35;;;;;;;;;;6085497;29;20056;-96
2023/12/27 03:02:32;;;;;;;22.58;13.75;;;;;;;;;;6089819;29;20049;-94
2023/12/27 03:05:34;;;;;;;21.38;13.82;;;;;;;;;;6090434;29;20281;-94
2023/12/27 03:08:37;;;;;;;20.88;13.93;;;;;;;;;;6085618;29;20048;-94
2023/12/27 03:11:40;;;;;;;23.10;13.15;;;;;;;;;;6096469;29;20045;-94
2023/12/27 03:14:42;;;;;;;23.73;12.70;;;;;;;;;;6093324;29;20048;-95
2023/12/27 03:17:43;;;;;;;20.33;12.32;;;;;;;;;;6085138;29;20454;-93
2023/12/27 03:20:46;;;;;;;18.90;11.88;;;;;;;;;;6090735;29;20061;-96
2023/12/27 03:23:49;;;;;;;20.15;11.93;;;;;;;;;;6094714;29;20053;-95
2023/12/27 03:26:53;;;;;;;17.98;11.75;;;;;;;;;;6093448;29;20048;-95
2023/12/27 03:29:55;;;;;;;18.58;11.88;;;;;;;;;;6089392;29;20045;-94
2023/12/27 03:32:57;;;;;;;18.45;10.98;;;;;;;;;;6087883;29;20108;-94
2023/12/27 03:35:59;;;;;;;22.77;11.55;;;;;;;;;;6091363;29;20052;-94
2023/12/27 03:39:04;;;;;;;19.33;10.82;;;;;;;;;;6093570;29;20049;-95
2023/12/27 03:42:09;;;;;;;16.95;11.35;;;;;;;;;;6089775;29;20104;-93
2023/12/27 03:45:11;;;;;;;18.67;11.70;;;;;;;;;;6094102;29;20049;-93
2023/12/27 03:48:13;;;;;;;18.95;11.68;;;;;;;;;;6090131;29;20049;-94
2023/12/27 03:51:15;;;;;;;20.48;12.02;;;;;;;;;;6087799;29;20052;-94
2023/12/27 03:54:16;;;;;;;17.40;12.23;;;;;;;;;;6089336;29;20248;-95
2023/12/27 03:57:19;;;;;;;19.00;12.85;;;;;;;;;;6089108;29;20063;-94
2023/12/27 04:00:21;;;;;;;20.20;12.88;;;;;;;;;;6090059;29;20052;-95
2023/12/27 04:03:24;;;;;;;20.00;12.13;;;;;;;;;;6084157;29;20053;-94
2023/12/27 04:06:26;;;;;;;16.30;12.15;;;;;;;;;;6084556;29;20056;-94
2023/12/27 04:09:28;;;;;;;19.90;12.55;;;;;;;;;;6084403;29;20055;-93
2023/12/27 04:12:31;;;;;;;18.98;12.38;;;;;;;;;;6082311;29;20059;-94
2023/12/27 04:15:33;;;;;;;18.83;12.40;;;;;;;;;;6084556;29;20115;-95
2023/12/27 04:18:35;;;;;;;19.35;12.45;;;;;;;;;;6084442;29;20060;-94
2023/12/27 04:21:37;;;;;;;18.67;12.07;;;;;;;;;;6086788;29;20371;-93
2023/12/27 04:24:38;;;;;;;19.05;11.18;;;;;;;;;;6080733;29;20052;-96
2023/12/27 04:27:42;;;;;;;17.38;11.80;;;;;;;;;;6086818;29;20063;-95
2023/12/27 04:30:44;;;;;;;21.60;12.20;;;;;;;;;;6088568;29;20112;-94
2023/12/27 04:33:46;;;;;;;18.73;12.55;;;;;;;;;;6085417;29;20067;-93
2023/12/27 04:36:48;;;;;;;22.40;12.80;;;;;;;;;;6085775;29;21145;-94
2023/12/27 04:39:49;;;;;;;22.25;12.77;;;;;;;;;;6090983;29;20053;-93
2023/12/27 04:42:53;;;;;;;17.70;11.90;;;;;;;;;;6084844;29;20056;-94
2023/12/27 04:45:54;;;;;;;19.27;13.00;;;;;;;;;;6083629;29;20059;-95
2023/12/27 04:48:56;;;;;;;22.50;13.95;;;;;;;;;;6080035;29;20120;-93
2023/12/27 04:51:58;;;;;;;23.10;13.77;;;;;;;;;;6086983;29;20052;-91
2023/12/27 04:55:00;;;;;;;19.63;13.23;;;;;;;;;;6087820;29;20045;-94
2023/12/27 04:58:04;;;;;;;22.33;13.43;;;;;;;;;;6090381;29;20100;-93
2023/12/27 05:01:07;;;;;;;25.38;15.32;;;;;;;;;;6087012;29;20041;-93
2023/12/27 05:04:09;;;;;;;23.10;13.77;;;;;;;;;;6084046;29;20188;-94
2023/12/27 05:07:11;;;;;;;21.55;14.02;;;;;;;;;;6084507;29;20059;-93
2023/12/27 05:10:13;;;;;;;21.83;13.48;;;;;;;;;;6083409;29;20120;-93
2023/12/27 05:13:16;;;;;;;21.85;13.82;;;;;;;;;;6091947;29;20116;-94
2023/12/27 05:16:18;;;;;;;21.97;13.43;;;;;;;;;;6083412;29;20060;-95
2023/12/27 05:19:20;;;;;;;20.00;12.68;;;;;;;;;;6080083;29;20072;-94
2023/12/27 05:22:23;;;;;;;17.25;12.25;;;;;;;;;;6083937;29;20113;-94
2023/12/27 05:25:24;;;;;;;17.70;12.48;;;;;;;;;;6084419;29;20072;-94
2023/12/27 05:28:28;;;;;;;19.50;12.20;;;;;;;;;;6079854;29;20055;-95
2023/12/27 05:31:29;;;;;;;17.30;12.13;;;;;;;;;;6087007;29;20048;-94
2023/12/27 05:34:31;;;;;;;18.73;13.00;;;;;;;;;;6085784;29;20059;-94
2023/12/27 05:37:33;;;;;;;18.38;12.10;;;;;;;;;;6079373;29;20053;-92
2023/12/27 05:40:35;;;;;;;18.40;11.75;;;;;;;;;;6077111;29;20045;-93
2023/12/27 05:43:38;;;;;;;18.42;11.95;;;;;;;;;;6080271;29;20099;-93
2023/12/27 05:46:40;;;;;;;17.53;11.83;;;;;;;;;;6078449;29;20060;-94
2023/12/27 05:49:41;;;;;;;17.90;11.75;;;;;;;;;;6085171;29;20063;-89
2023/12/27 05:52:43;;;;;;;17.85;12.38;;;;;;;;;;6085129;29;20059;-93
2023/12/27 05:55:45;;;;;;;22.45;12.68;;;;;;;;;;6088197;29;20056;-93
2023/12/27 05:58:49;;;;;;;20.45;13.15;;;;;;;;;;6089439;29;20108;-92
2023/12/27 06:01:53;;;;;;;22.08;13.25;;;;;;;;;;6088061;29;20243;-92
2023/12/27 06:04:55;;;;;;;;;;;;;;;;;;6083110;29;20249;-91
2023/12/27 06:07:57;;;;;;;20.17;12.93;;;;;;;;;;6088519;29;19987;-92
2023/12/27 06:11:00;;;;;;;17.73;12.70;;;;;;;;;;6098464;29;20126;-93
2023/12/27 06:14:04;;;;;;;21.10;13.02;;;;;;;;;;6097100;29;20087;-92
2023/12/27 06:17:07;;;;;;;23.23;14.05;;;;;;;;;;6094789;29;20071;-91
2023/12/27 06:20:10;;;;;;;20.40;14.07;;;;;;;;;;6082527;29;20104;-93
2023/12/27 06:23:12;;;;;;;19.30;12.88;;;;;;;;;;6085179;29;20052;-93
2023/12/27 06:26:13;;;;;;;20.20;13.60;;;;;;;;;;6087174;29;20048;-91
2023/12/27 06:29:17;;;;;;;20.52;13.75;;;;;;;;;;6090480;29;20044;-94
2023/12/27 06:32:18;;;;;;;22.20;13.67;;;;;;;;;;6090266;29;20052;-91
2023/12/27 06:35:21;;;;;;;20.15;13.60;;;;;;;;;;6088185;29;20048;-93
2023/12/27 06:38:23;;;;;;;23.17;13.48;;;;;;;;;;6089444;29;20064;-92
2023/12/27 06:41:25;;;;;;;19.60;13.25;;;;;;;;;;6089995;29;20055;-92
2023/12/27 06:44:28;;;;;;;22.58;14.63;;;;;;;;;;6089658;29;20052;-92
2023/12/27 06:47:30;;;;;;;22.48;14.73;;;;;;;;;;6084404;29;20370;-92
2023/12/27 06:50:32;;;;;;;23.63;13.75;;;;;;;;;;6086207;29;20048;-93
2023/12/27 06:53:34;;;;;;;20.80;13.35;;;;;;;;;;6087825;29;20097;-91
2023/12/27 06:56:38;;;;;;;21.67;14.45;;;;;;;;;;6091385;29;20073;-91
2023/12/27 06:59:41;;;;;;;;;;;;;;;;;;6086077;29;20057;-93
2023/12/27 07:02:43;;;;;;;20.75;13.23;;;;;;;;;;6081152;29;20227;-92
2023/12/27 07:05:45;;;;;;;20.23;13.90;;;;;;;;;;6083016;29;20272;-91
2023/12/27 07:08:47;;;;;;;19.48;13.63;;;;;;;;;;6086627;29;20048;-92
2023/12/27 07:11:48;;;;;;;21.95;14.32;;;;;;;;;;6082108;29;20112;-91
2023/12/27 07:14:51;;;;;;;20.80;13.70;;;;;;;;;;6084541;29;20068;-91
2023/12/27 07:17:54;;;;;;;22.52;14.35;;;;;;;;;;6086891;29;20049;-91
2023/12/27 07:20:56;;;;;;;21.48;14.13;;;;;;;;;;6083826;29;20040;-92
2023/12/27 07:23:58;;;;;;;22.77;13.82;;;;;;;;;;6084517;29;20064;-92
2023/12/27 07:27:00;;;;;;;25.58;14.93;;;;;;;;;;6094043;29;20104;-92
2023/12/27 07:30:06;;;;;;;22.50;14.35;;;;;;;;;;6090831;29;20067;-92
2023/12/27 07:33:08;;;;;;;18.63;14.15;;;;;;;;;;6089112;29;20108;-91
2023/12/27 07:36:10;;;;;;;22.83;14.70;;;;;;;;;;6082700;29;20052;-92
2023/12/27 07:39:13;;;;;;;23.30;14.15;;;;;;;;;;6088817;29;20125;-92
2023/12/27 07:42:16;;;;;;;26.88;14.82;;;;;;;;;;6085186;29;20113;-92
2023/12/27 07:45:21;;;;;;;21.10;14.52;;;;;;;;;;6084542;29;20068;-92
2023/12/27 07:48:23;;;;;;;23.42;14.23;;;;;;;;;;6085526;29;20117;-92
2023/12/27 07:51:25;;;;;;;22.42;14.20;;;;;;;;;;6087403;29;20063;-92
2023/12/27 07:54:27;;;;;;;21.88;13.68;;;;;;;;;;6088536;29;20057;-92
2023/12/27 07:57:29;;;;;;;23.05;13.98;;;;;;;;;;6089421;29;20064;-91
2023/12/27 08:00:33;;;;;;;22.17;14.77;;;;;;;;;;6087562;29;20088;-92
2023/12/27 08:03:36;;;;;;;24.23;13.90;;;;;;;;;;6092284;29;20052;-92
2023/12/27 08:06:38;;;;;;;20.75;13.93;;;;;;;;;;6084671;29;20049;-92
2023/12/27 08:09:40;;;;;;;22.65;14.85;;;;;;;;;;6086498;29;20080;-92
2023/12/27 08:12:42;;;;;;;22.38;15.20;;;;;;;;;;6089522;29;20058;-92
2023/12/27 08:15:45;;;;;;;22.17;14.40;;;;;;;;;;6086527;29;20356;-92
2023/12/27 08:18:47;;;;;;;25.10;13.95;;;;;;;;;;6088429;29;20052;-93
2023/12/27 08:21:48;;;;;;;22.98;14.18;;;;;;;;;;6089417;29;20048;-92
2023/12/27 08:24:50;;;;;;;22.65;13.65;;;;;;;;;;6083897;29;20045;-92
2023/12/27 08:27:52;;;;;;;24.40;14.30;;;;;;;;;;6086235;29;20060;-91
2023/12/27 08:30:55;;;;;;;21.70;14.65;;;;;;;;;;6089389;29;20053;-92
2023/12/27 08:33:59;;;;;;;27.03;14.90;;;;;;;;;;6084425;29;20277;-92
2023/12/27 08:37:01;;;;;;;20.50;14.07;;;;;;;;;;6085333;29;20052;-91
2023/12/27 08:40:06;;;;;;;28.70;15.00;;;;;;;;;;6087386;29;20044;-92
2023/12/27 08:43:08;;;;;;;20.55;13.60;;;;;;;;;;6091370;29;20088;-91
2023/12/27 08:46:12;;;;;;;23.63;14.43;;;;;;;;;;6081386;29;20063;-93
2023/12/27 08:49:14;;;;;;;21.30;13.90;;;;;;;;;;6087035;29;20100;-93
2023/12/27 08:52:16;;;;;;;21.38;13.30;;;;;;;;;;6087842;29;20045;-92
2023/12/27 08:55:19;;;;;;;22.48;13.38;;;;;;;;;;6085686;29;20057;-93
2023/12/27 08:58:21;;;;;;;23.42;13.18;;;;;;;;;;6085943;29;20071;-91
2023/12/27 09:01:24;;;;;;;20.95;13.50;;;;;;;;;;6087820;29;20075;-93
2023/12/27 09:04:27;;;;;;;20.67;13.40;;;;;;;;;;6089230;29;20241;-92
2023/12/27 09:07:30;;;;;;;20.40;13.55;;;;;;;;;;6089867;29;20317;-92
2023/12/27 09:10:33;;;;;;;22.83;13.77;;;;;;;;;;6081455;29;20097;-92
2023/12/27 09:13:35;;;;;;;17.65;12.30;;;;;;;;;;6084410;29;20052;-92
2023/12/27 09:16:38;;;;;;;19.38;12.48;;;;;;;;;;6084961;29;21047;-92
2023/12/27 09:19:40;;;;;;;18.90;12.60;;;;;;;;;;6085669;29;20048;-94
2023/12/27 09:22:42;;;;;;;18.45;12.63;;;;;;;;;;6083738;29;20061;-92
2023/12/27 09:25:44;;;;;;;18.15;12.05;;;;;;;;;;6088522;29;20100;-92
2023/12/27 09:28:46;;;;;;;19.35;12.88;;;;;;;;;;6092049;29;20049;-91
2023/12/27 09:31:49;;;;;;;15.95;11.95;;;;;;;;;;6084791;29;20052;-91
2023/12/27 09:34:51;;;;;;;17.63;12.65;;;;;;;;;;6090794;29;20067;-93
2023/12/27 09:37:52;;;;;;;20.88;12.98;;;;;;;;;;6086535;29;20051;-92
2023/12/27 09:40:55;;;;;;;19.10;12.30;;;;;;;;;;6088695;29;20383;-91
2023/12/27 09:43:57;;;;;;;18.02;12.10;;;;;;;;;;6094426;29;20132;-90
2023/12/27 09:47:02;;;;;;;19.90;12.65;;;;;;;;;;6087725;29;20071;-94
2023/12/27 09:50:06;;;;;;;19.17;12.60;;;;;;;;;;6089793;29;20045;-92
2023/12/27 09:53:07;;;;;;;;;;;;;;;;;;6085128;29;20051;-93
2023/12/27 09:56:10;;;;;;;20.77;13.23;;;;;;;;;;6087675;29;19934;-93
2023/12/27 09:59:16;;;;;;;20.70;13.90;;;;;;;;;;6095053;29;20068;-94
2023/12/27 10:02:20;;;;;;;19.90;13.68;;;;;;;;;;6091025;29;20328;-93
2023/12/27 10:05:23;;;;;;;;;;;;;;;;;;6085212;29;20044;-93
2023/12/27 10:08:24;;;;;;;25.05;13.02;;;;;;;;;;6087964;29;19935;-93
2023/12/27 10:11:27;;;;;;;19.98;13.43;;;;;;;;;;6092991;29;20056;-94
2023/12/27 10:14:29;;;;;;;20.75;14.40;;;;;;;;;;6087848;29;20057;-93
2023/12/27 10:17:32;;;;;;;21.55;14.40;;;;;;;;;;6090905;29;20073;-91
2023/12/27 10:20:36;;;;;;;21.55;15.73;;;;;;;;;;6088828;29;20060;-93
2023/12/27 10:23:38;;;;;;;23.80;15.55;;;;;;;;;;6091362;29;20217;-94
2023/12/27 10:26:40;;;;;;;26.40;16.40;;;;;;;;;;6086599;29;20053;-93
2023/12/27 10:29:47;;;;;;;22.73;15.27;;;;;;;;;;6089931;29;20061;-94
2023/12/27 10:32:58;;;;;;;25.50;15.85;;;;;;;;;;6086740;29;20071;-93
2023/12/27 10:36:00;;;;;;;23.30;15.52;;;;;;;;;;6088659;29;20056;-93
2023/12/27 10:39:05;;;;;;;23.38;15.50;;;;;;;;;;6089593;29;20051;-93
2023/12/27 10:42:08;;;;;;;24.17;14.35;;;;;;;;;;6082692;29;20068;-92
2023/12/27 10:45:10;;;;;;;22.63;15.07;;;;;;;;;;6088402;29;20056;-92
2023/12/27 10:48:14;;;;;;;20.35;14.50;;;;;;;;;;6082738;29;20052;-93
2023/12/27 10:51:16;;;;;;;;;;;;;;;;;;6085362;29;20045;-93
2023/12/27 10:54:21;;;;;;;20.92;14.10;;;;;;;;;;6083995;29;20010;-93
2023/12/27 10:57:23;;;;;;;23.65;15.43;;;;;;;;;;6087160;29;20045;-92
2023/12/27 11:00:25;;;;;;;25.42;16.27;;;;;;;;;;6086297;29;20060;-93
2023/12/27 11:03:29;;;;;;;25.05;16.40;;;;;;;;;;6084953;29;20141;-93
2023/12/27 11:06:32;;;;;;;30.67;17.92;;;;;;;;;;6089373;29;20232;-93
2023/12/27 11:09:35;;;;;;;31.27;21.07;;;;;;;;;;6087792;29;20068;-92
2023/12/27 11:12:38;;;;;;;30.80;19.70;;;;;;;;;;6086643;29;20457;-92
2023/12/27 11:15:44;;;;;;;31.17;20.33;;;;;;;;;;6084306;29;20060;-92
2023/12/27 11:18:48;;;;;;;30.20;20.50;;;;;;;;;;6087415;29;20057;-93
2023/12/27 11:21:50;;;;;;;28.52;19.80;;;;;;;;;;6085323;29;20041;-91
2023/12/27 11:24:52;;;;;;;28.33;19.80;;;;;;;;;;6086560;29;20075;-92
2023/12/27 11:27:54;;;;;;;30.42;20.45;;;;;;;;;;6083036;29;20112;-93
2023/12/27 11:30:56;;;;;;;30.95;19.92;;;;;;;;;;6082488;29;20160;-92
2023/12/27 11:33:59;;;;;;;29.60;19.02;;;;;;;;;;6079247;29;20337;-93
2023/12/27 11:37:01;;;;;;;26.08;20.05;;;;;;;;;;6078612;29;20056;-92
2023/12/27 11:40:03;;;;;;;29.63;20.52;;;;;;;;;;6081568;29;20045;-91
2023/12/27 11:43:05;;;;;;;29.08;18.88;;;;;;;;;;6084641;29;20044;-91
2023/12/27 11:46:09;;;;;;;28.50;19.60;;;;;;;;;;6084490;29;20127;-92
2023/12/27 11:49:19;;;;;;;29.10;20.48;;;;;;;;;;6087229;29;20052;-93
2023/12/27 11:52:24;;;;;;;31.40;20.85;;;;;;;;;;6082401;29;20045;-92
2023/12/27 11:55:33;;;;;;;29.73;20.63;;;;;;;;;;6079202;29;20337;-92
2023/12/27 11:58:36;;;;;;;26.67;20.25;;;;;;;;;;6081610;29;20053;-94
2023/12/27 12:01:39;;;;;;;31.55;20.92;;;;;;;;;;6086648;29;20081;-93
2023/12/27 12:04:49;;;;;;;29.55;20.27;;;;;;;;;;6083278;29;20056;-92
2023/12/27 12:07:56;;;;;;;29.83;21.23;;;;;;;;;;6086810;29;20418;-90
2023/12/27 12:11:07;;;;;;;30.48;21.23;;;;;;;;;;6088526;29;20057;-90
2023/12/27 12:14:09;;;;;;;29.35;21.10;;;;;;;;;;6082157;29;20289;-91
2023/12/27 12:17:11;;;;;;;31.42;22.55;;;;;;;;;;6078726;29;20049;-92
2023/12/27 12:20:14;;;;;;;29.48;21.70;;;;;;;;;;6082368;29;20052;-91
2023/12/27 12:23:16;;;;;;;29.93;21.50;;;;;;;;;;6082096;29;20053;-93
2023/12/27 12:26:18;;;;;;;29.55;21.65;;;;;;;;;;6083175;29;20096;-91
2023/12/27 12:29:22;;;;;;;28.67;22.23;;;;;;;;;;6078804;29;20052;-91
2023/12/27 12:32:25;;;;;;;29.52;21.17;;;;;;;;;;6078522;29;20424;-93
2023/12/27 12:35:28;;;;;;;28.88;22.58;;;;;;;;;;6081746;29;20040;-92
2023/12/27 12:38:30;;;;;;;31.23;22.15;;;;;;;;;;6076561;29;20063;-91
2023/12/27 12:41:31;;;;;;;28.92;21.13;;;;;;;;;;6078575;29;20065;-89
2023/12/27 12:44:33;;;;;;;35.10;24.45;;;;;;;;;;6079961;29;20068;-90
2023/12/27 12:47:35;;;;;;;66.03;37.20;;;;;;;;;;6078228;29;20064;-90
2023/12/27 12:50:38;;;;;;;69.28;38.97;;;;;;;;;;6080085;29;20072;-86
2023/12/27 12:53:40;;;;;;;63.78;34.95;;;;;;;;;;6080252;29;20053;-86
2023/12/27 12:56:42;;;;;;;54.88;33.08;;;;;;;;;;6079737;29;20128;-89
2023/12/27 12:59:44;;;;;;;49.88;28.85;;;;;;;;;;6079852;29;20144;-89
2023/12/27 13:02:45;;;;;;;49.97;29.38;;;;;;;;;;6074340;29;20056;-91
2023/12/27 13:05:51;;;;;;;74.60;39.20;;;;;;;;;;6078533;29;20059;-90
2023/12/27 13:08:54;;;;;;;67.13;37.92;;;;;;;;;;6081147;29;20048;-90
2023/12/27 13:11:56;;;;;;;43.25;26.40;;;;;;;;;;6076881;29;20060;-90
2023/12/27 13:14:59;;;;;;;30.30;19.58;;;;;;;;;;6080105;29;20088;-91
2023/12/27 13:18:01;;;;;;;26.02;17.05;;;;;;;;;;6084112;29;20044;-91
2023/12/27 13:21:04;;;;;;;19.98;14.80;;;;;;;;;;6080918;29;20056;-93
2023/12/27 13:24:06;;;;;;;21.65;14.43;;;;;;;;;;6083255;29;20044;-93
2023/12/27 13:27:08;;;;;;;24.73;15.38;;;;;;;;;;6078552;29;20060;-91
2023/12/27 13:30:11;;;;;;;27.63;18.00;;;;;;;;;;6077074;29;20490;-93
2023/12/27 13:33:13;;;;;;;25.60;17.02;;;;;;;;;;6079941;29;20076;-92
2023/12/27 13:36:16;;;;;;;27.88;17.85;;;;;;;;;;6081144;29;20048;-93
2023/12/27 13:39:18;;;;;;;22.13;16.60;;;;;;;;;;6081098;29;20052;-92
2023/12/27 13:42:20;;;;;;;24.10;16.45;;;;;;;;;;6082568;29;20060;-92
2023/12/27 13:45:22;;;;;;;24.00;16.55;;;;;;;;;;6079233;29;20099;-92
2023/12/27 13:48:24;;;;;;;22.90;17.05;;;;;;;;;;6080105;29;20061;-92
2023/12/27 13:51:27;;;;;;;27.73;18.52;;;;;;;;;;6078399;29;20052;-92
2023/12/27 13:54:28;;;;;;;24.35;17.15;;;;;;;;;;6077043;29;20116;-92
2023/12/27 13:57:30;;;;;;;27.92;17.77;;;;;;;;;;6078159;29;20274;-92
2023/12/27 14:00:32;;;;;;;23.45;17.90;;;;;;;;;;6077191;29;20298;-90
2023/12/27 14:03:34;;;;;;;26.08;17.77;;;;;;;;;;6079725;29;20290;-91
2023/12/27 14:06:37;;;;;;;26.33;17.75;;;;;;;;;;6081685;29;20105;-91
2023/12/27 14:09:39;;;;;;;25.85;18.08;;;;;;;;;;6075721;29;20060;-92
2023/12/27 14:12:43;;;;;;;27.95;18.75;;;;;;;;;;6085242;29;20053;-92
2023/12/27 14:15:44;;;;;;;25.63;17.85;;;;;;;;;;6084266;29;20301;-92
2023/12/27 14:18:46;;;;;;;24.60;18.10;;;;;;;;;;6079777;29;20052;-92
2023/12/27 14:21:49;;;;;;;25.88;18.10;;;;;;;;;;6084703;29;20364;-92
2023/12/27 14:24:51;;;;;;;30.20;18.63;;;;;;;;;;6085674;29;20333;-92
2023/12/27 14:27:53;;;;;;;26.92;19.15;;;;;;;;;;6084334;29;20045;-92
2023/12/27 14:30:55;;;;;;;28.20;18.52;;;;;;;;;;6083445;29;20075;-92
2023/12/27 14:33:56;;;;;;;24.45;16.77;;;;;;;;;;6083319;29;20054;-92
2023/12/27 14:37:00;;;;;;;24.30;17.25;;;;;;;;;;6082318;29;20282;-86
2023/12/27 14:40:05;;;;;;;30.83;18.50;;;;;;;;;;6081568;29;20115;-91
2023/12/27 14:43:07;;;;;;;27.25;18.13;;;;;;;;;;6082299;29;20073;-92
2023/12/27 14:46:09;;;;;;;28.13;18.45;;;;;;;;;;6080387;29;20056;-92
2023/12/27 14:49:11;;;;;;;28.10;18.80;;;;;;;;;;6086598;29;20355;-92
2023/12/27 14:52:14;;;;;;;28.23;18.80;;;;;;;;;;6080170;29;20057;-91
2023/12/27 14:55:16;;;;;;;24.97;18.23;;;;;;;;;;6081685;29;20063;-92
2023/12/27 14:58:18;;;;;;;25.38;18.27;;;;;;;;;;6083456;29;21632;-89
2023/12/27 15:01:19;;;;;;;55.25;31.55;;;;;;;;;;6086815;29;20049;-88
2023/12/27 15:04:22;;;;;;;59.47;35.03;;;;;;;;;;6081337;29;20404;-91
2023/12/27 15:07:26;;;;;;;41.38;26.02;;;;;;;;;;6081283;29;20078;-92
2023/12/27 15:10:28;;;;;;;35.22;22.30;;;;;;;;;;6084801;29;20109;-92
2023/12/27 15:13:30;;;;;;;31.83;19.70;;;;;;;;;;6079319;29;20049;-91
2023/12/27 15:16:32;;;;;;;32.35;19.63;;;;;;;;;;6083651;29;20400;-91
2023/12/27 15:19:33;;;;;;;24.83;17.83;;;;;;;;;;6082915;29;20068;-92
2023/12/27 15:22:36;;;;;;;24.15;16.45;;;;;;;;;;6080588;29;20056;-92
2023/12/27 15:25:38;;;;;;;28.77;18.02;;;;;;;;;;6084046;29;20055;-91
2023/12/27 15:28:40;;;;;;;27.85;18.60;;;;;;;;;;6083944;29;20049;-92
2023/12/27 15:31:42;;;;;;;27.90;16.95;;;;;;;;;;6081492;29;20053;-90
2023/12/27 15:34:44;;;;;;;27.20;18.85;;;;;;;;;;6081883;29;20075;-91
2023/12/27 15:37:47;;;;;;;24.35;16.95;;;;;;;;;;6083636;29;20053;-92
2023/12/27 15:40:48;;;;;;;23.00;16.67;;;;;;;;;;6081422;29;20044;-92
2023/12/27 15:43:50;;;;;;;29.40;18.83;;;;;;;;;;6076758;29;20375;-92
2023/12/27 15:46:52;;;;;;;29.42;20.20;;;;;;;;;;6076556;29;20052;-92
2023/12/27 15:49:54;;;;;;;28.17;20.88;;;;;;;;;;6079476;29;20056;-91
2023/12/27 15:52:57;;;;;;;28.15;20.30;;;;;;;;;;6081088;29;20056;-92
2023/12/27 15:55:58;;;;;;;31.67;20.23;;;;;;;;;;6078946;29;20055;-91
2023/12/27 15:59:02;;;;;;;31.77;20.88;;;;;;;;;;6081066;29;20045;-91
2023/12/27 16:02:04;;;;;;;26.85;19.90;;;;;;;;;;6082473;29;20286;-91
2023/12/27 16:05:08;;;;;;;29.00;20.73;;;;;;;;;;6083935;29;20053;-91
2023/12/27 16:08:11;;;;;;;52.60;29.92;;;;;;;;;;6083065;29;20060;-92
2023/12/27 16:11:13;;;;;;;74.07;39.77;;;;;;;;;;6082542;29;20079;-92
2023/12/27 16:14:14;;;;;;;89.03;47.38;;;;;;;;;;6079194;29;20375;-92
2023/12/27 16:17:16;;;;;;;101.85;50.45;;;;;;;;;;6082279;29;20806;-89
2023/12/27 16:20:18;;;;;;;73.72;39.97;;;;;;;;;;6085417;29;20066;-91
2023/12/27 16:23:21;;;;;;;50.92;29.67;;;;;;;;;;6081216;29;20059;-92
2023/12/27 16:26:24;;;;;;;39.00;24.13;;;;;;;;;;6079636;29;20064;-91
2023/12/27 16:29:28;;;;;;;30.52;21.35;;;;;;;;;;6084408;29;20044;-91
2023/12/27 16:32:38;;;;;;;31.60;22.00;;;;;;;;;;6082402;29;20055;-92
2023/12/27 16:35:42;;;;;;;36.08;22.17;;;;;;;;;;6084415;29;20170;-89
2023/12/27 16:38:45;;;;;;;30.42;20.80;;;;;;;;;;6089422;29;20056;-90
2023/12/27 16:41:47;;;;;;;34.17;22.37;;;;;;;;;;6087609;29;20052;-91
2023/12/27 16:44:49;;;;;;;30.55;22.17;;;;;;;;;;6086655;29;20592;-90
2023/12/27 16:47:57;;;;;;;32.33;21.17;;;;;;;;;;6089756;29;20056;-90
2023/12/27 16:50:59;;;;;;;35.33;23.08;;;;;;;;;;6091887;29;20087;-90
2023/12/27 16:54:02;;;;;;;31.63;22.70;;;;;;;;;;6087002;29;20052;-91
2023/12/27 16:57:04;;;;;;;31.80;21.85;;;;;;;;;;6085974;29;20058;-90
2023/12/27 17:00:08;;;;;;;30.23;21.13;;;;;;;;;;6090175;29;20044;-91
2023/12/27 17:03:11;;;;;;;33.35;21.30;;;;;;;;;;6087912;29;20058;-90
2023/12/27 17:06:13;;;;;;;33.70;22.60;;;;;;;;;;6093540;29;20063;-90
2023/12/27 17:09:16;;;;;;;34.10;22.17;;;;;;;;;;6087357;29;20091;-90
2023/12/27 17:12:18;;;;;;;34.30;23.33;;;;;;;;;;6094419;29;20045;-90
2023/12/27 17:15:19;;;;;;;33.58;23.60;;;;;;;;;;6089126;29;20352;-91
2023/12/27 17:18:21;;;;;;;32.15;23.35;;;;;;;;;;6089025;29;20057;-90
2023/12/27 17:21:23;;;;;;;31.95;22.75;;;;;;;;;;6086765;29;20052;-90
2023/12/27 17:24:27;;;;;;;36.53;22.92;;;;;;;;;;6087281;29;20057;-90
2023/12/27 17:27:28;;;;;;;44.67;26.88;;;;;;;;;;6091848;29;20059;-90
2023/12/27 17:30:30;;;;;;;43.38;26.08;;;;;;;;;;6082635;29;20104;-91
2023/12/27 17:33:32;;;;;;;41.92;26.65;;;;;;;;;;6088370;29;20049;-91
2023/12/27 17:36:34;;;;;;;42.05;27.38;;;;;;;;;;6083121;29;20053;-94
2023/12/27 17:39:37;;;;;;;39.20;23.85;;;;;;;;;;6079958;29;20056;-92
2023/12/27 17:42:39;;;;;;;36.83;22.47;;;;;;;;;;6087235;29;20049;-91
2023/12/27 17:45:41;;;;;;;31.42;22.88;;;;;;;;;;6086194;29;20138;-91